sensor_id;sensor_type;location;lat;lon;timestamp;temperature;humidity
68011;DHT22;54794;48.348;7.878;2024-03-02T00:00:24;8.50;61.00
68011;DHT22;54794;48.348;7.878;2024-03-02T00:02:52;8.70;61.20
68011;DHT22;54794;48.348;7.878;2024-03-02T00:05:20;8.70;61.10
68011;DHT22;54794;48.348;7.878;2024-03-02T00:07:56;8.50;61.00
68011;DHT22;54794;48.348;7.878;2024-03-02T00:10:39;8.70;61.00
68011;DHT22;54794;48.348;7.878;2024-03-02T00:13:08;8.50;60.80
68011;DHT22;54794;48.348;7.878;2024-03-02T00:15:46;8.90;60.90
68011;DHT22;54794;48.348;7.878;2024-03-02T00:18:20;8.50;60.70
68011;DHT22;54794;48.348;7.878;2024-03-02T00:20:59;8.50;60.70
68011;DHT22;54794;48.348;7.878;2024-03-02T00:23:29;8.40;60.70
68011;DHT22;54794;48.348;7.878;2024-03-02T00:25:58;8.40;60.80
68011;DHT22;54794;48.348;7.878;2024-03-02T00:28:30;8.40;60.80
68011;DHT22;54794;48.348;7.878;2024-03-02T00:31:09;8.50;60.90
68011;DHT22;54794;48.348;7.878;2024-03-02T00:33:41;8.40;60.90
68011;DHT22;54794;48.348;7.878;2024-03-02T00:36:12;8.30;60.70
68011;DHT22;54794;48.348;7.878;2024-03-02T00:38:47;8.30;60.80
68011;DHT22;54794;48.348;7.878;2024-03-02T00:41:25;8.30;60.80
68011;DHT22;54794;48.348;7.878;2024-03-02T00:44:00;8.30;60.80
68011;DHT22;54794;48.348;7.878;2024-03-02T00:46:32;8.30;60.80
68011;DHT22;54794;48.348;7.878;2024-03-02T00:49:02;8.20;60.80
68011;DHT22;54794;48.348;7.878;2024-03-02T00:51:47;8.20;60.80
68011;DHT22;54794;48.348;7.878;2024-03-02T00:54:22;8.20;60.80
68011;DHT22;54794;48.348;7.878;2024-03-02T00:56:52;8.20;61.00
68011;DHT22;54794;48.348;7.878;2024-03-02T00:59:25;8.20;61.00
68011;DHT22;54794;48.348;7.878;2024-03-02T01:01:52;8.10;60.90
68011;DHT22;54794;48.348;7.878;2024-03-02T01:04:20;8.40;61.10
68011;DHT22;54794;48.348;7.878;2024-03-02T01:06:47;8.10;60.90
68011;DHT22;54794;48.348;7.878;2024-03-02T01:09:15;8.10;60.90
68011;DHT22;54794;48.348;7.878;2024-03-02T01:11:43;8.70;61.20
68011;DHT22;54794;48.348;7.878;2024-03-02T01:14:10;8.80;61.20
68011;DHT22;54794;48.348;7.878;2024-03-02T01:16:37;7.80;60.80
68011;DHT22;54794;48.348;7.878;2024-03-02T01:19:04;8.10;60.90
68011;DHT22;54794;48.348;7.878;2024-03-02T01:21:31;8.70;61.30
68011;DHT22;54794;48.348;7.878;2024-03-02T01:24:00;8.40;61.30
68011;DHT22;54794;48.348;7.878;2024-03-02T01:26:27;8.00;61.10
68011;DHT22;54794;48.348;7.878;2024-03-02T01:28:54;8.00;61.00
68011;DHT22;54794;48.348;7.878;2024-03-02T01:31:21;8.00;61.00
68011;DHT22;54794;48.348;7.878;2024-03-02T01:33:48;8.00;61.10
68011;DHT22;54794;48.348;7.878;2024-03-02T01:36:15;8.00;61.10
68011;DHT22;54794;48.348;7.878;2024-03-02T01:38:41;8.00;61.60
68011;DHT22;54794;48.348;7.878;2024-03-02T01:41:08;8.00;61.00
68011;DHT22;54794;48.348;7.878;2024-03-02T01:43:35;7.50;60.80
68011;DHT22;54794;48.348;7.878;2024-03-02T01:46:05;8.20;61.10
68011;DHT22;54794;48.348;7.878;2024-03-02T01:48:32;7.80;60.90
68011;DHT22;54794;48.348;7.878;2024-03-02T01:51:00;8.10;61.00
68011;DHT22;54794;48.348;7.878;2024-03-02T01:53:28;7.90;60.90
68011;DHT22;54794;48.348;7.878;2024-03-02T01:55:55;7.80;61.00
68011;DHT22;54794;48.348;7.878;2024-03-02T01:58:22;7.60;60.90
68011;DHT22;54794;48.348;7.878;2024-03-02T02:00:49;7.70;61.00
68011;DHT22;54794;48.348;7.878;2024-03-02T02:03:17;7.70;61.00
68011;DHT22;54794;48.348;7.878;2024-03-02T02:05:44;7.70;61.10
68011;DHT22;54794;48.348;7.878;2024-03-02T02:08:11;7.70;61.10
68011;DHT22;54794;48.348;7.878;2024-03-02T02:10:37;7.60;61.20
68011;DHT22;54794;48.348;7.878;2024-03-02T02:13:04;7.90;61.40
68011;DHT22;54794;48.348;7.878;2024-03-02T02:15:31;7.60;61.20
68011;DHT22;54794;48.348;7.878;2024-03-02T02:18:01;8.10;61.50
68011;DHT22;54794;48.348;7.878;2024-03-02T02:20:28;7.90;61.40
68011;DHT22;54794;48.348;7.878;2024-03-02T02:23:03;7.90;61.40
68011;DHT22;54794;48.348;7.878;2024-03-02T02:25:32;7.60;61.30
68011;DHT22;54794;48.348;7.878;2024-03-02T02:27:59;7.40;61.20
68011;DHT22;54794;48.348;7.878;2024-03-02T02:30:28;7.60;61.20
68011;DHT22;54794;48.348;7.878;2024-03-02T02:32:58;7.50;61.30
68011;DHT22;54794;48.348;7.878;2024-03-02T02:35:25;7.60;61.40
68011;DHT22;54794;48.348;7.878;2024-03-02T02:37:54;7.50;61.40
68011;DHT22;54794;48.348;7.878;2024-03-02T02:40:22;7.50;61.50
68011;DHT22;54794;48.348;7.878;2024-03-02T02:42:49;7.50;61.50
68011;DHT22;54794;48.348;7.878;2024-03-02T02:45:19;8.10;61.80
68011;DHT22;54794;48.348;7.878;2024-03-02T02:47:46;7.60;61.30
68011;DHT22;54794;48.348;7.878;2024-03-02T02:50:13;7.50;61.20
68011;DHT22;54794;48.348;7.878;2024-03-02T02:52:41;7.50;61.20
68011;DHT22;54794;48.348;7.878;2024-03-02T02:55:10;7.50;61.30
68011;DHT22;54794;48.348;7.878;2024-03-02T02:57:40;7.40;61.30
68011;DHT22;54794;48.348;7.878;2024-03-02T03:00:17;7.40;61.40
68011;DHT22;54794;48.348;7.878;2024-03-02T03:02:48;7.40;61.40
68011;DHT22;54794;48.348;7.878;2024-03-02T03:05:18;7.50;61.40
68011;DHT22;54794;48.348;7.878;2024-03-02T03:07:45;7.30;61.40
68011;DHT22;54794;48.348;7.878;2024-03-02T03:10:15;7.30;61.30
68011;DHT22;54794;48.348;7.878;2024-03-02T03:12:43;7.20;61.30
68011;DHT22;54794;48.348;7.878;2024-03-02T03:15:11;7.90;61.70
68011;DHT22;54794;48.348;7.878;2024-03-02T03:17:39;7.00;61.20
68011;DHT22;54794;48.348;7.878;2024-03-02T03:20:06;7.00;61.30
68011;DHT22;54794;48.348;7.878;2024-03-02T03:22:40;7.00;61.40
68011;DHT22;54794;48.348;7.878;2024-03-02T03:25:07;7.00;62.00
68011;DHT22;54794;48.348;7.878;2024-03-02T03:27:37;7.00;61.50
68011;DHT22;54794;48.348;7.878;2024-03-02T03:30:04;7.00;61.70
68011;DHT22;54794;48.348;7.878;2024-03-02T03:32:33;7.00;61.80
68011;DHT22;54794;48.348;7.878;2024-03-02T03:34:59;7.00;61.90
68011;DHT22;54794;48.348;7.878;2024-03-02T03:37:26;7.30;62.00
68011;DHT22;54794;48.348;7.878;2024-03-02T03:40:00;7.20;62.10
68011;DHT22;54794;48.348;7.878;2024-03-02T03:42:27;7.60;62.30
68011;DHT22;54794;48.348;7.878;2024-03-02T03:44:55;7.00;62.00
68011;DHT22;54794;48.348;7.878;2024-03-02T03:47:22;7.00;62.10
68011;DHT22;54794;48.348;7.878;2024-03-02T03:49:49;7.00;62.10
68011;DHT22;54794;48.348;7.878;2024-03-02T03:52:15;7.00;62.20
68011;DHT22;54794;48.348;7.878;2024-03-02T03:54:42;6.90;62.10
68011;DHT22;54794;48.348;7.878;2024-03-02T03:57:11;7.00;62.20
68011;DHT22;54794;48.348;7.878;2024-03-02T03:59:41;6.60;61.90
68011;DHT22;54794;48.348;7.878;2024-03-02T04:02:08;6.50;61.80
68011;DHT22;54794;48.348;7.878;2024-03-02T04:04:35;7.60;62.40
68011;DHT22;54794;48.348;7.878;2024-03-02T04:07:02;7.00;62.00
68011;DHT22;54794;48.348;7.878;2024-03-02T04:09:29;7.00;62.10
68011;DHT22;54794;48.348;7.878;2024-03-02T04:11:56;7.00;62.00
68011;DHT22;54794;48.348;7.878;2024-03-02T04:14:23;7.40;62.20
68011;DHT22;54794;48.348;7.878;2024-03-02T04:16:50;7.10;62.10
68011;DHT22;54794;48.348;7.878;2024-03-02T04:19:20;6.90;61.90
68011;DHT22;54794;48.348;7.878;2024-03-02T04:21:46;6.80;61.80
68011;DHT22;54794;48.348;7.878;2024-03-02T04:24:13;6.70;61.80
68011;DHT22;54794;48.348;7.878;2024-03-02T04:26:40;7.00;62.00
68011;DHT22;54794;48.348;7.878;2024-03-02T04:29:07;6.70;62.00
68011;DHT22;54794;48.348;7.878;2024-03-02T04:31:34;6.60;62.00
68011;DHT22;54794;48.348;7.878;2024-03-02T04:34:01;6.70;62.10
68011;DHT22;54794;48.348;7.878;2024-03-02T04:36:28;7.20;62.40
68011;DHT22;54794;48.348;7.878;2024-03-02T04:38:55;6.60;62.10
68011;DHT22;54794;48.348;7.878;2024-03-02T04:41:22;6.70;62.20
68011;DHT22;54794;48.348;7.878;2024-03-02T04:43:48;6.70;62.30
68011;DHT22;54794;48.348;7.878;2024-03-02T04:46:17;6.70;62.30
68011;DHT22;54794;48.348;7.878;2024-03-02T04:48:44;6.70;62.40
68011;DHT22;54794;48.348;7.878;2024-03-02T04:51:11;6.80;62.50
68011;DHT22;54794;48.348;7.878;2024-03-02T04:53:42;7.10;62.70
68011;DHT22;54794;48.348;7.878;2024-03-02T04:56:09;6.80;62.50
68011;DHT22;54794;48.348;7.878;2024-03-02T04:59:02;6.60;62.30
68011;DHT22;54794;48.348;7.878;2024-03-02T05:01:29;6.70;62.40
68011;DHT22;54794;48.348;7.878;2024-03-02T05:03:56;6.40;62.20
68011;DHT22;54794;48.348;7.878;2024-03-02T05:06:23;6.60;62.30
68011;DHT22;54794;48.348;7.878;2024-03-02T05:08:50;6.70;62.40
68011;DHT22;54794;48.348;7.878;2024-03-02T05:11:17;7.30;63.30
68011;DHT22;54794;48.348;7.878;2024-03-02T05:14:03;6.60;62.50
68011;DHT22;54794;48.348;7.878;2024-03-02T05:16:36;6.60;62.50
68011;DHT22;54794;48.348;7.878;2024-03-02T05:19:05;6.60;62.60
68011;DHT22;54794;48.348;7.878;2024-03-02T05:21:35;6.60;63.00
68011;DHT22;54794;48.348;7.878;2024-03-02T05:24:02;6.80;62.50
68011;DHT22;54794;48.348;7.878;2024-03-02T05:26:31;6.50;62.40
68011;DHT22;54794;48.348;7.878;2024-03-02T05:28:58;6.50;62.50
68011;DHT22;54794;48.348;7.878;2024-03-02T05:31:25;6.50;62.50
68011;DHT22;54794;48.348;7.878;2024-03-02T05:33:52;6.50;62.60
68011;DHT22;54794;48.348;7.878;2024-03-02T05:36:23;6.50;62.50
68011;DHT22;54794;48.348;7.878;2024-03-02T05:38:50;6.50;62.60
68011;DHT22;54794;48.348;7.878;2024-03-02T05:41:18;6.50;62.60
68011;DHT22;54794;48.348;7.878;2024-03-02T05:43:45;6.40;62.40
68011;DHT22;54794;48.348;7.878;2024-03-02T05:46:12;6.40;62.40
68011;DHT22;54794;48.348;7.878;2024-03-02T05:48:38;6.40;62.50
68011;DHT22;54794;48.348;7.878;2024-03-02T05:51:06;6.40;62.50
68011;DHT22;54794;48.348;7.878;2024-03-02T05:53:32;6.30;62.50
68011;DHT22;54794;48.348;7.878;2024-03-02T05:56:00;6.40;63.10
68011;DHT22;54794;48.348;7.878;2024-03-02T05:58:31;7.10;63.10
68011;DHT22;54794;48.348;7.878;2024-03-02T06:01:34;6.20;62.60
68011;DHT22;54794;48.348;7.878;2024-03-02T06:04:01;6.40;62.80
68011;DHT22;54794;48.348;7.878;2024-03-02T06:06:28;6.40;62.80
68011;DHT22;54794;48.348;7.878;2024-03-02T06:08:55;7.10;63.30
68011;DHT22;54794;48.348;7.878;2024-03-02T06:11:25;6.30;63.00
68011;DHT22;54794;48.348;7.878;2024-03-02T06:13:52;6.20;63.00
68011;DHT22;54794;48.348;7.878;2024-03-02T06:16:19;6.60;63.30
68011;DHT22;54794;48.348;7.878;2024-03-02T06:18:46;6.90;63.50
68011;DHT22;54794;48.348;7.878;2024-03-02T06:21:13;6.50;63.40
68011;DHT22;54794;48.348;7.878;2024-03-02T06:23:40;6.50;63.40
68011;DHT22;54794;48.348;7.878;2024-03-02T06:26:07;7.30;64.10
68011;DHT22;54794;48.348;7.878;2024-03-02T06:28:34;6.50;63.60
68011;DHT22;54794;48.348;7.878;2024-03-02T06:31:02;6.60;63.70
68011;DHT22;54794;48.348;7.878;2024-03-02T06:33:29;6.70;63.70
68011;DHT22;54794;48.348;7.878;2024-03-02T06:35:56;6.70;63.60
68011;DHT22;54794;48.348;7.878;2024-03-02T06:38:23;6.70;63.50
68011;DHT22;54794;48.348;7.878;2024-03-02T06:40:50;6.80;63.40
68011;DHT22;54794;48.348;7.878;2024-03-02T06:43:19;6.90;63.20
68011;DHT22;54794;48.348;7.878;2024-03-02T06:45:50;7.00;63.20
68011;DHT22;54794;48.348;7.878;2024-03-02T06:48:18;7.00;63.20
68011;DHT22;54794;48.348;7.878;2024-03-02T06:50:50;7.50;63.40
68011;DHT22;54794;48.348;7.878;2024-03-02T06:53:16;7.00;63.10
68011;DHT22;54794;48.348;7.878;2024-03-02T06:55:47;6.90;63.10
68011;DHT22;54794;48.348;7.878;2024-03-02T06:58:14;7.00;63.10
68011;DHT22;54794;48.348;7.878;2024-03-02T07:00:44;7.10;63.80
68011;DHT22;54794;48.348;7.878;2024-03-02T07:03:11;6.90;63.10
68011;DHT22;54794;48.348;7.878;2024-03-02T07:05:39;7.10;63.40
68011;DHT22;54794;48.348;7.878;2024-03-02T07:08:06;7.20;63.60
68011;DHT22;54794;48.348;7.878;2024-03-02T07:10:33;7.20;63.60
68011;DHT22;54794;48.348;7.878;2024-03-02T07:13:00;7.20;63.70
68011;DHT22;54794;48.348;7.878;2024-03-02T07:15:27;7.30;63.70
68011;DHT22;54794;48.348;7.878;2024-03-02T07:17:55;7.30;63.70
68011;DHT22;54794;48.348;7.878;2024-03-02T07:20:21;7.50;63.80
68011;DHT22;54794;48.348;7.878;2024-03-02T07:22:48;8.30;63.90
68011;DHT22;54794;48.348;7.878;2024-03-02T07:25:15;7.40;63.20
68011;DHT22;54794;48.348;7.878;2024-03-02T07:27:45;7.80;64.10
68011;DHT22;54794;48.348;7.878;2024-03-02T07:30:15;7.50;63.20
68011;DHT22;54794;48.348;7.878;2024-03-02T07:32:45;7.60;63.40
68011;DHT22;54794;48.348;7.878;2024-03-02T07:35:12;7.60;63.50
68011;DHT22;54794;48.348;7.878;2024-03-02T07:37:42;7.80;63.70
68011;DHT22;54794;48.348;7.878;2024-03-02T07:40:10;7.70;63.50
68011;DHT22;54794;48.348;7.878;2024-03-02T07:42:40;7.70;63.60
68011;DHT22;54794;48.348;7.878;2024-03-02T07:45:08;7.90;63.80
68011;DHT22;54794;48.348;7.878;2024-03-02T07:47:35;7.80;63.70
68011;DHT22;54794;48.348;7.878;2024-03-02T07:50:03;8.10;63.90
68011;DHT22;54794;48.348;7.878;2024-03-02T07:52:33;8.00;63.80
68011;DHT22;54794;48.348;7.878;2024-03-02T07:55:00;8.00;63.80
68011;DHT22;54794;48.348;7.878;2024-03-02T07:57:26;8.20;63.90
68011;DHT22;54794;48.348;7.878;2024-03-02T07:59:54;8.30;63.90
68011;DHT22;54794;48.348;7.878;2024-03-02T08:02:21;8.40;64.00
68011;DHT22;54794;48.348;7.878;2024-03-02T08:04:48;8.30;64.00
68011;DHT22;54794;48.348;7.878;2024-03-02T08:07:15;8.40;64.10
68011;DHT22;54794;48.348;7.878;2024-03-02T08:09:42;8.40;63.90
68011;DHT22;54794;48.348;7.878;2024-03-02T08:12:09;8.70;64.00
68011;DHT22;54794;48.348;7.878;2024-03-02T08:14:36;8.40;63.90
68011;DHT22;54794;48.348;7.878;2024-03-02T08:17:08;8.70;64.10
68011;DHT22;54794;48.348;7.878;2024-03-02T08:19:36;8.80;64.10
68011;DHT22;54794;48.348;7.878;2024-03-02T08:22:04;8.90;64.10
68011;DHT22;54794;48.348;7.878;2024-03-02T08:24:31;9.00;64.20
68011;DHT22;54794;48.348;7.878;2024-03-02T08:26:59;9.10;64.20
68011;DHT22;54794;48.348;7.878;2024-03-02T08:29:26;9.40;64.40
68011;DHT22;54794;48.348;7.878;2024-03-02T08:31:54;9.30;64.20
68011;DHT22;54794;48.348;7.878;2024-03-02T08:34:21;9.40;64.20
68011;DHT22;54794;48.348;7.878;2024-03-02T08:36:48;9.50;64.20
68011;DHT22;54794;48.348;7.878;2024-03-02T08:39:15;9.60;64.30
68011;DHT22;54794;48.348;7.878;2024-03-02T08:41:44;9.80;64.30
68011;DHT22;54794;48.348;7.878;2024-03-02T08:44:12;9.60;64.20
68011;DHT22;54794;48.348;7.878;2024-03-02T08:46:40;10.20;64.40
68011;DHT22;54794;48.348;7.878;2024-03-02T08:49:07;10.10;64.30
68011;DHT22;54794;48.348;7.878;2024-03-02T08:51:34;10.20;64.20
68011;DHT22;54794;48.348;7.878;2024-03-02T08:54:04;10.60;64.30
68011;DHT22;54794;48.348;7.878;2024-03-02T08:56:31;10.40;64.20
68011;DHT22;54794;48.348;7.878;2024-03-02T08:58:59;10.40;64.10
68011;DHT22;54794;48.348;7.878;2024-03-02T09:01:26;10.80;64.20
68011;DHT22;54794;48.348;7.878;2024-03-02T09:03:53;10.80;64.20
68011;DHT22;54794;48.348;7.878;2024-03-02T09:06:20;11.30;64.20
68011;DHT22;54794;48.348;7.878;2024-03-02T09:08:51;11.30;64.20
68011;DHT22;54794;48.348;7.878;2024-03-02T09:11:21;11.20;64.00
68011;DHT22;54794;48.348;7.878;2024-03-02T09:13:53;11.60;64.10
68011;DHT22;54794;48.348;7.878;2024-03-02T09:16:35;11.30;63.90
68011;DHT22;54794;48.348;7.878;2024-03-02T09:19:02;12.00;64.20
68011;DHT22;54794;48.348;7.878;2024-03-02T09:21:35;11.60;63.80
68011;DHT22;54794;48.348;7.878;2024-03-02T09:24:02;12.10;63.90
68011;DHT22;54794;48.348;7.878;2024-03-02T09:26:30;11.80;63.70
68011;DHT22;54794;48.348;7.878;2024-03-02T09:28:57;12.00;63.70
68011;DHT22;54794;48.348;7.878;2024-03-02T09:31:24;11.80;63.50
68011;DHT22;54794;48.348;7.878;2024-03-02T09:33:51;11.90;63.50
68011;DHT22;54794;48.348;7.878;2024-03-02T09:36:22;12.60;63.80
68011;DHT22;54794;48.348;7.878;2024-03-02T09:38:49;12.40;63.60
68011;DHT22;54794;48.348;7.878;2024-03-02T09:41:16;12.50;63.60
68011;DHT22;54794;48.348;7.878;2024-03-02T09:43:43;12.40;63.40
68011;DHT22;54794;48.348;7.878;2024-03-02T09:46:11;12.60;63.50
68011;DHT22;54794;48.348;7.878;2024-03-02T09:48:38;12.70;63.50
68011;DHT22;54794;48.348;7.878;2024-03-02T09:51:05;13.30;63.80
68011;DHT22;54794;48.348;7.878;2024-03-02T09:53:33;12.90;63.10
68011;DHT22;54794;48.348;7.878;2024-03-02T09:56:01;13.30;63.10
68011;DHT22;54794;48.348;7.878;2024-03-02T09:58:28;13.20;62.80
68011;DHT22;54794;48.348;7.878;2024-03-02T10:00:55;13.50;62.70
68011;DHT22;54794;48.348;7.878;2024-03-02T10:03:23;13.10;62.30
68011;DHT22;54794;48.348;7.878;2024-03-02T10:05:52;13.40;62.30
68011;DHT22;54794;48.348;7.878;2024-03-02T10:08:19;13.20;62.30
68011;DHT22;54794;48.348;7.878;2024-03-02T10:10:46;13.70;62.80
68011;DHT22;54794;48.348;7.878;2024-03-02T10:13:14;14.00;62.70
68011;DHT22;54794;48.348;7.878;2024-03-02T10:15:41;13.60;62.40
68011;DHT22;54794;48.348;7.878;2024-03-02T10:18:10;13.70;62.00
68011;DHT22;54794;48.348;7.878;2024-03-02T10:20:39;14.20;62.00
68011;DHT22;54794;48.348;7.878;2024-03-02T10:23:12;14.40;61.90
68011;DHT22;54794;48.348;7.878;2024-03-02T10:25:41;14.00;61.30
68011;DHT22;54794;48.348;7.878;2024-03-02T10:28:23;14.10;61.40
68011;DHT22;54794;48.348;7.878;2024-03-02T10:30:50;14.10;61.20
68011;DHT22;54794;48.348;7.878;2024-03-02T10:33:19;14.50;61.10
68011;DHT22;54794;48.348;7.878;2024-03-02T10:35:49;14.80;61.30
68011;DHT22;54794;48.348;7.878;2024-03-02T10:38:17;14.30;60.80
68011;DHT22;54794;48.348;7.878;2024-03-02T10:40:49;14.40;60.60
68011;DHT22;54794;48.348;7.878;2024-03-02T10:43:17;14.30;60.50
68011;DHT22;54794;48.348;7.878;2024-03-02T10:45:49;14.60;60.90
68011;DHT22;54794;48.348;7.878;2024-03-02T10:48:17;15.00;60.60
68011;DHT22;54794;48.348;7.878;2024-03-02T10:50:45;15.30;60.80
68011;DHT22;54794;48.348;7.878;2024-03-02T10:53:12;14.70;60.80
68011;DHT22;54794;48.348;7.878;2024-03-02T10:55:39;14.80;60.30
68011;DHT22;54794;48.348;7.878;2024-03-02T10:58:06;14.80;60.20
68011;DHT22;54794;48.348;7.878;2024-03-02T11:00:39;14.90;59.90
68011;DHT22;54794;48.348;7.878;2024-03-02T11:03:10;15.10;59.90
68011;DHT22;54794;48.348;7.878;2024-03-02T11:05:44;15.00;59.80
68011;DHT22;54794;48.348;7.878;2024-03-02T11:08:14;15.60;59.90
68011;DHT22;54794;48.348;7.878;2024-03-02T11:10:50;15.20;59.30
68011;DHT22;54794;48.348;7.878;2024-03-02T11:13:24;15.30;59.10
68011;DHT22;54794;48.348;7.878;2024-03-02T11:16:00;15.30;59.20
68011;DHT22;54794;48.348;7.878;2024-03-02T11:18:33;15.40;59.30
68011;DHT22;54794;48.348;7.878;2024-03-02T11:21:02;15.70;59.10
68011;DHT22;54794;48.348;7.878;2024-03-02T11:23:33;15.50;58.80
68011;DHT22;54794;48.348;7.878;2024-03-02T11:26:18;15.70;58.20
68011;DHT22;54794;48.348;7.878;2024-03-02T11:28:48;15.70;57.90
68011;DHT22;54794;48.348;7.878;2024-03-02T11:31:15;15.80;58.60
68011;DHT22;54794;48.348;7.878;2024-03-02T11:37:19;15.90;58.10
68011;DHT22;54794;48.348;7.878;2024-03-02T11:39:50;16.00;57.90
68011;DHT22;54794;48.348;7.878;2024-03-02T11:42:18;16.30;57.80
68011;DHT22;54794;48.348;7.878;2024-03-02T11:44:46;16.20;57.40
68011;DHT22;54794;48.348;7.878;2024-03-02T11:47:16;16.30;57.10
68011;DHT22;54794;48.348;7.878;2024-03-02T11:49:50;16.50;57.40
68011;DHT22;54794;48.348;7.878;2024-03-02T11:52:18;16.40;57.00
68011;DHT22;54794;48.348;7.878;2024-03-02T11:54:48;16.50;56.50
68011;DHT22;54794;48.348;7.878;2024-03-02T11:57:19;16.60;56.30
68011;DHT22;54794;48.348;7.878;2024-03-02T11:59:52;16.90;56.50
68011;DHT22;54794;48.348;7.878;2024-03-02T12:02:20;16.80;56.80
68011;DHT22;54794;48.348;7.878;2024-03-02T12:04:49;17.20;56.80
68011;DHT22;54794;48.348;7.878;2024-03-02T12:07:19;17.10;56.90
68011;DHT22;54794;48.348;7.878;2024-03-02T12:10:01;17.20;57.10
68011;DHT22;54794;48.348;7.878;2024-03-02T12:12:32;17.30;55.70
68011;DHT22;54794;48.348;7.878;2024-03-02T12:15:02;17.70;56.10
68011;DHT22;54794;48.348;7.878;2024-03-02T12:17:30;17.40;56.20
68011;DHT22;54794;48.348;7.878;2024-03-02T12:20:02;17.60;56.20
68011;DHT22;54794;48.348;7.878;2024-03-02T12:22:33;17.50;55.80
68011;DHT22;54794;48.348;7.878;2024-03-02T12:25:01;17.60;55.90
68011;DHT22;54794;48.348;7.878;2024-03-02T12:27:28;18.20;55.90
68011;DHT22;54794;48.348;7.878;2024-03-02T12:30:04;17.70;55.50
68011;DHT22;54794;48.348;7.878;2024-03-02T12:32:42;17.80;55.30
68011;DHT22;54794;48.348;7.878;2024-03-02T12:35:18;18.20;55.50
68011;DHT22;54794;48.348;7.878;2024-03-02T12:37:49;18.40;54.90
68011;DHT22;54794;48.348;7.878;2024-03-02T12:40:19;17.80;54.70
68011;DHT22;54794;48.348;7.878;2024-03-02T12:42:49;18.40;54.60
68011;DHT22;54794;48.348;7.878;2024-03-02T12:45:18;18.30;54.80
68011;DHT22;54794;48.348;7.878;2024-03-02T12:47:54;18.00;54.20
68011;DHT22;54794;48.348;7.878;2024-03-02T12:50:24;17.40;53.90
68011;DHT22;54794;48.348;7.878;2024-03-02T12:52:55;18.00;54.50
68011;DHT22;54794;48.348;7.878;2024-03-02T12:55:23;18.00;53.00
68011;DHT22;54794;48.348;7.878;2024-03-02T12:57:52;18.40;54.10
68011;DHT22;54794;48.348;7.878;2024-03-02T13:00:21;18.30;54.20
68011;DHT22;54794;48.348;7.878;2024-03-02T13:02:49;18.70;54.10
68011;DHT22;54794;48.348;7.878;2024-03-02T13:05:18;18.80;53.70
68011;DHT22;54794;48.348;7.878;2024-03-02T13:07:50;18.90;54.30
68011;DHT22;54794;48.348;7.878;2024-03-02T13:10:17;18.70;53.00
68011;DHT22;54794;48.348;7.878;2024-03-02T13:12:45;18.70;53.90
68011;DHT22;54794;48.348;7.878;2024-03-02T13:15:13;18.90;53.70
68011;DHT22;54794;48.348;7.878;2024-03-02T13:17:45;19.10;54.10
68011;DHT22;54794;48.348;7.878;2024-03-02T13:20:15;19.20;53.10
68011;DHT22;54794;48.348;7.878;2024-03-02T13:22:44;19.60;54.00
68011;DHT22;54794;48.348;7.878;2024-03-02T13:25:11;19.70;52.90
68011;DHT22;54794;48.348;7.878;2024-03-02T13:27:39;19.80;52.60
68011;DHT22;54794;48.348;7.878;2024-03-02T13:30:07;20.10;52.60
68011;DHT22;54794;48.348;7.878;2024-03-02T13:32:36;19.70;52.50
68011;DHT22;54794;48.348;7.878;2024-03-02T13:35:06;20.00;52.40
68011;DHT22;54794;48.348;7.878;2024-03-02T13:37:43;19.90;52.30
68011;DHT22;54794;48.348;7.878;2024-03-02T13:40:10;20.10;51.90
68011;DHT22;54794;48.348;7.878;2024-03-02T13:42:47;20.60;52.10
68011;DHT22;54794;48.348;7.878;2024-03-02T13:45:18;20.50;51.70
68011;DHT22;54794;48.348;7.878;2024-03-02T13:48:11;20.50;52.10
68011;DHT22;54794;48.348;7.878;2024-03-02T13:50:48;20.70;50.40
68011;DHT22;54794;48.348;7.878;2024-03-02T13:53:18;21.00;50.50
68011;DHT22;54794;48.348;7.878;2024-03-02T13:55:51;21.10;50.80
68011;DHT22;54794;48.348;7.878;2024-03-02T13:58:29;21.20;50.40
68011;DHT22;54794;48.348;7.878;2024-03-02T14:00:57;20.80;49.90
68011;DHT22;54794;48.348;7.878;2024-03-02T14:03:31;21.20;50.80
68011;DHT22;54794;48.348;7.878;2024-03-02T14:06:09;21.10;50.00
68011;DHT22;54794;48.348;7.878;2024-03-02T14:08:37;20.80;49.60
68011;DHT22;54794;48.348;7.878;2024-03-02T14:11:04;20.80;50.10
68011;DHT22;54794;48.348;7.878;2024-03-02T14:13:36;20.80;49.40
68011;DHT22;54794;48.348;7.878;2024-03-02T14:16:19;20.60;49.40
68011;DHT22;54794;48.348;7.878;2024-03-02T14:18:50;20.50;48.90
68011;DHT22;54794;48.348;7.878;2024-03-02T14:21:17;20.90;49.00
68011;DHT22;54794;48.348;7.878;2024-03-02T14:23:48;20.60;49.40
68011;DHT22;54794;48.348;7.878;2024-03-02T14:26:20;20.50;49.40
68011;DHT22;54794;48.348;7.878;2024-03-02T14:28:50;20.50;49.40
68011;DHT22;54794;48.348;7.878;2024-03-02T14:31:22;20.40;49.10
68011;DHT22;54794;48.348;7.878;2024-03-02T14:33:48;20.50;49.00
68011;DHT22;54794;48.348;7.878;2024-03-02T14:36:16;20.40;49.30
68011;DHT22;54794;48.348;7.878;2024-03-02T14:38:43;19.80;49.10
68011;DHT22;54794;48.348;7.878;2024-03-02T14:41:14;19.80;49.30
68011;DHT22;54794;48.348;7.878;2024-03-02T14:43:41;20.00;49.20
68011;DHT22;54794;48.348;7.878;2024-03-02T14:46:14;19.70;49.20
68011;DHT22;54794;48.348;7.878;2024-03-02T14:48:40;19.80;49.30
68011;DHT22;54794;48.348;7.878;2024-03-02T14:51:07;19.90;49.50
68011;DHT22;54794;48.348;7.878;2024-03-02T14:53:34;19.90;49.30
68011;DHT22;54794;48.348;7.878;2024-03-02T14:56:02;19.60;49.40
68011;DHT22;54794;48.348;7.878;2024-03-02T14:58:29;19.30;49.30
68011;DHT22;54794;48.348;7.878;2024-03-02T15:00:56;19.50;49.40
68011;DHT22;54794;48.348;7.878;2024-03-02T15:03:23;19.70;49.60
68011;DHT22;54794;48.348;7.878;2024-03-02T15:05:50;19.20;49.50
68011;DHT22;54794;48.348;7.878;2024-03-02T15:08:18;19.40;49.60
68011;DHT22;54794;48.348;7.878;2024-03-02T15:10:44;19.10;49.10
68011;DHT22;54794;48.348;7.878;2024-03-02T15:13:12;19.20;49.20
68011;DHT22;54794;48.348;7.878;2024-03-02T15:15:39;19.10;49.20
68011;DHT22;54794;48.348;7.878;2024-03-02T15:18:06;19.10;49.30
68011;DHT22;54794;48.348;7.878;2024-03-02T15:20:33;18.90;49.30
68011;DHT22;54794;48.348;7.878;2024-03-02T15:23:02;18.90;49.30
68011;DHT22;54794;48.348;7.878;2024-03-02T15:25:29;18.80;49.20
68011;DHT22;54794;48.348;7.878;2024-03-02T15:27:56;18.80;49.20
68011;DHT22;54794;48.348;7.878;2024-03-02T15:30:23;18.70;49.40
68011;DHT22;54794;48.348;7.878;2024-03-02T15:32:51;18.70;49.30
68011;DHT22;54794;48.348;7.878;2024-03-02T15:35:18;18.20;49.20
68011;DHT22;54794;48.348;7.878;2024-03-02T15:37:45;19.00;49.50
68011;DHT22;54794;48.348;7.878;2024-03-02T15:40:12;18.60;49.30
68011;DHT22;54794;48.348;7.878;2024-03-02T15:42:39;18.70;49.50
68011;DHT22;54794;48.348;7.878;2024-03-02T15:45:06;19.00;49.80
68011;DHT22;54794;48.348;7.878;2024-03-02T15:47:34;18.50;49.50
68011;DHT22;54794;48.348;7.878;2024-03-02T15:50:03;18.50;49.40
68011;DHT22;54794;48.348;7.878;2024-03-02T15:52:30;18.50;50.00
68011;DHT22;54794;48.348;7.878;2024-03-02T15:54:57;18.30;49.70